sensor_id;sensor_type;location;lat;lon;timestamp;P1;durP1;ratioP1;P2;durP2;ratioP2
60610;SDS011;46439;51.164;13.572;2023-05-27T00:01:28;16.20;;;4.90;;
60610;SDS011;46439;51.164;13.572;2023-05-27T00:03:56;19.20;;;4.90;;
60610;SDS011;46439;51.164;13.572;2023-05-27T00:06:25;15.50;;;5.10;;
60610;SDS011;46439;51.164;13.572;2023-05-27T00:08:53;17.50;;;4.70;;
60610;SDS011;46439;51.164;13.572;2023-05-27T00:11:22;16.40;;;5.20;;
60610;SDS011;46439;51.164;13.572;2023-05-27T00:13:50;13.80;;;4.90;;
60610;SDS011;46439;51.164;13.572;2023-05-27T00:16:19;14.10;;;5.00;;
60610;SDS011;46439;51.164;13.572;2023-05-27T00:18:48;14.20;;;5.10;;
60610;SDS011;46439;51.164;13.572;2023-05-27T00:21:17;15.80;;;4.40;;
60610;SDS011;46439;51.164;13.572;2023-05-27T00:23:46;17.80;;;4.90;;
60610;SDS011;46439;51.164;13.572;2023-05-27T00:26:18;13.20;;;4.20;;
60610;SDS011;46439;51.164;13.572;2023-05-27T00:28:47;11.90;;;3.90;;
60610;SDS011;46439;51.164;13.572;2023-05-27T00:31:15;11.30;;;4.50;;
60610;SDS011;46439;51.164;13.572;2023-05-27T00:33:44;12.70;;;4.50;;
60610;SDS011;46439;51.164;13.572;2023-05-27T00:36:12;16.60;;;5.30;;
60610;SDS011;46439;51.164;13.572;2023-05-27T00:38:41;13.20;;;4.70;;
60610;SDS011;46439;51.164;13.572;2023-05-27T00:41:09;12.70;;;5.10;;
60610;SDS011;46439;51.164;13.572;2023-05-27T00:43:39;12.10;;;4.50;;
60610;SDS011;46439;51.164;13.572;2023-05-27T00:46:07;11.00;;;4.70;;
60610;SDS011;46439;51.164;13.572;2023-05-27T00:48:36;13.60;;;4.90;;
60610;SDS011;46439;51.164;13.572;2023-05-27T00:51:05;15.00;;;4.90;;
60610;SDS011;46439;51.164;13.572;2023-05-27T00:53:35;15.80;;;5.20;;
60610;SDS011;46439;51.164;13.572;2023-05-27T00:56:07;12.80;;;4.60;;
60610;SDS011;46439;51.164;13.572;2023-05-27T00:58:36;12.50;;;4.60;;
60610;SDS011;46439;51.164;13.572;2023-05-27T01:01:05;12.60;;;4.60;;
60610;SDS011;46439;51.164;13.572;2023-05-27T01:03:33;11.10;;;4.50;;
60610;SDS011;46439;51.164;13.572;2023-05-27T01:06:05;12.30;;;4.10;;
60610;SDS011;46439;51.164;13.572;2023-05-27T01:08:43;10.90;;;4.30;;
60610;SDS011;46439;51.164;13.572;2023-05-27T01:11:18;13.60;;;4.20;;
60610;SDS011;46439;51.164;13.572;2023-05-27T01:13:55;20.40;;;4.30;;
60610;SDS011;46439;51.164;13.572;2023-05-27T01:16:27;11.50;;;4.00;;
60610;SDS011;46439;51.164;13.572;2023-05-27T01:18:57;11.20;;;4.60;;
60610;SDS011;46439;51.164;13.572;2023-05-27T01:21:29;11.90;;;4.20;;
60610;SDS011;46439;51.164;13.572;2023-05-27T01:24:04;13.30;;;5.00;;
60610;SDS011;46439;51.164;13.572;2023-05-27T01:26:33;13.20;;;4.50;;
60610;SDS011;46439;51.164;13.572;2023-05-27T01:29:02;15.30;;;4.90;;
60610;SDS011;46439;51.164;13.572;2023-05-27T01:31:33;14.10;;;4.90;;
60610;SDS011;46439;51.164;13.572;2023-05-27T01:34:08;14.10;;;5.70;;
60610;SDS011;46439;51.164;13.572;2023-05-27T01:36:41;12.30;;;5.20;;
60610;SDS011;46439;51.164;13.572;2023-05-27T01:39:13;16.70;;;5.80;;
60610;SDS011;46439;51.164;13.572;2023-05-27T01:41:44;14.80;;;5.10;;
60610;SDS011;46439;51.164;13.572;2023-05-27T01:44:14;15.70;;;5.00;;
60610;SDS011;46439;51.164;13.572;2023-05-27T01:46:44;13.60;;;4.70;;
60610;SDS011;46439;51.164;13.572;2023-05-27T01:49:13;18.30;;;4.40;;
60610;SDS011;46439;51.164;13.572;2023-05-27T01:51:41;14.30;;;5.00;;
60610;SDS011;46439;51.164;13.572;2023-05-27T01:54:10;10.70;;;4.00;;
60610;SDS011;46439;51.164;13.572;2023-05-27T01:56:38;13.90;;;4.50;;
60610;SDS011;46439;51.164;13.572;2023-05-27T01:59:07;13.60;;;4.70;;
60610;SDS011;46439;51.164;13.572;2023-05-27T02:01:36;13.40;;;4.50;;
60610;SDS011;46439;51.164;13.572;2023-05-27T02:04:04;11.00;;;4.70;;
60610;SDS011;46439;51.164;13.572;2023-05-27T02:06:33;15.60;;;4.80;;
60610;SDS011;46439;51.164;13.572;2023-05-27T02:09:02;14.40;;;4.60;;
60610;SDS011;46439;51.164;13.572;2023-05-27T02:11:31;15.10;;;5.00;;
60610;SDS011;46439;51.164;13.572;2023-05-27T02:14:01;11.20;;;4.60;;
60610;SDS011;46439;51.164;13.572;2023-05-27T02:16:31;17.70;;;4.90;;
60610;SDS011;46439;51.164;13.572;2023-05-27T02:19:00;10.70;;;4.20;;
60610;SDS011;46439;51.164;13.572;2023-05-27T02:21:29;12.70;;;4.80;;
60610;SDS011;46439;51.164;13.572;2023-05-27T02:23:57;12.70;;;5.30;;
60610;SDS011;46439;51.164;13.572;2023-05-27T02:26:26;13.50;;;4.80;;
60610;SDS011;46439;51.164;13.572;2023-05-27T02:28:55;14.00;;;4.50;;
60610;SDS011;46439;51.164;13.572;2023-05-27T02:31:23;12.50;;;4.60;;
60610;SDS011;46439;51.164;13.572;2023-05-27T02:33:52;10.70;;;4.30;;
60610;SDS011;46439;51.164;13.572;2023-05-27T02:36:21;11.20;;;4.20;;
60610;SDS011;46439;51.164;13.572;2023-05-27T02:38:50;14.70;;;4.70;;
60610;SDS011;46439;51.164;13.572;2023-05-27T02:41:19;11.90;;;4.60;;
60610;SDS011;46439;51.164;13.572;2023-05-27T02:43:47;14.30;;;4.40;;
60610;SDS011;46439;51.164;13.572;2023-05-27T02:46:16;11.70;;;3.90;;
60610;SDS011;46439;51.164;13.572;2023-05-27T02:48:44;12.90;;;4.70;;
60610;SDS011;46439;51.164;13.572;2023-05-27T02:51:13;12.20;;;4.30;;
60610;SDS011;46439;51.164;13.572;2023-05-27T02:53:41;11.50;;;4.30;;
60610;SDS011;46439;51.164;13.572;2023-05-27T02:56:10;16.20;;;4.20;;
60610;SDS011;46439;51.164;13.572;2023-05-27T02:58:38;18.60;;;4.50;;
60610;SDS011;46439;51.164;13.572;2023-05-27T03:01:07;10.20;;;4.30;;
60610;SDS011;46439;51.164;13.572;2023-05-27T03:03:36;12.80;;;4.10;;
60610;SDS011;46439;51.164;13.572;2023-05-27T03:06:04;13.00;;;3.90;;
60610;SDS011;46439;51.164;13.572;2023-05-27T03:08:33;11.20;;;4.00;;
60610;SDS011;46439;51.164;13.572;2023-05-27T03:11:02;10.70;;;4.10;;
60610;SDS011;46439;51.164;13.572;2023-05-27T03:13:31;10.20;;;4.10;;
60610;SDS011;46439;51.164;13.572;2023-05-27T03:16:00;14.30;;;4.40;;
60610;SDS011;46439;51.164;13.572;2023-05-27T03:18:28;10.30;;;3.50;;
60610;SDS011;46439;51.164;13.572;2023-05-27T03:20:57;12.30;;;4.20;;
60610;SDS011;46439;51.164;13.572;2023-05-27T03:23:26;13.90;;;4.10;;
60610;SDS011;46439;51.164;13.572;2023-05-27T03:25:54;10.40;;;4.60;;
60610;SDS011;46439;51.164;13.572;2023-05-27T03:28:23;15.50;;;4.30;;
60610;SDS011;46439;51.164;13.572;2023-05-27T03:30:52;13.60;;;4.00;;
60610;SDS011;46439;51.164;13.572;2023-05-27T03:33:23;10.10;;;3.70;;
60610;SDS011;46439;51.164;13.572;2023-05-27T03:35:52;10.80;;;4.20;;
60610;SDS011;46439;51.164;13.572;2023-05-27T03:38:22;12.00;;;4.20;;
60610;SDS011;46439;51.164;13.572;2023-05-27T03:40:51;13.40;;;3.90;;
60610;SDS011;46439;51.164;13.572;2023-05-27T03:43:19;12.40;;;4.10;;
60610;SDS011;46439;51.164;13.572;2023-05-27T03:45:48;13.50;;;4.00;;
60610;SDS011;46439;51.164;13.572;2023-05-27T03:48:17;17.20;;;4.70;;
60610;SDS011;46439;51.164;13.572;2023-05-27T03:50:46;11.40;;;3.90;;
60610;SDS011;46439;51.164;13.572;2023-05-27T03:53:15;13.00;;;3.80;;
60610;SDS011;46439;51.164;13.572;2023-05-27T03:55:43;10.00;;;3.90;;
60610;SDS011;46439;51.164;13.572;2023-05-27T03:58:12;13.40;;;4.40;;
60610;SDS011;46439;51.164;13.572;2023-05-27T04:00:41;12.40;;;4.20;;
60610;SDS011;46439;51.164;13.572;2023-05-27T04:03:10;13.70;;;4.30;;
60610;SDS011;46439;51.164;13.572;2023-05-27T04:05:38;9.90;;;3.40;;
60610;SDS011;46439;51.164;13.572;2023-05-27T04:08:07;16.50;;;3.90;;
60610;SDS011;46439;51.164;13.572;2023-05-27T04:10:35;13.30;;;3.90;;
60610;SDS011;46439;51.164;13.572;2023-05-27T04:13:04;14.80;;;5.10;;
60610;SDS011;46439;51.164;13.572;2023-05-27T04:15:33;14.50;;;3.90;;
60610;SDS011;46439;51.164;13.572;2023-05-27T04:18:03;13.30;;;3.70;;
60610;SDS011;46439;51.164;13.572;2023-05-27T04:20:36;14.10;;;4.50;;
60610;SDS011;46439;51.164;13.572;2023-05-27T04:23:07;13.20;;;4.00;;
60610;SDS011;46439;51.164;13.572;2023-05-27T04:25:36;14.70;;;4.20;;
60610;SDS011;46439;51.164;13.572;2023-05-27T04:28:05;12.50;;;3.80;;
60610;SDS011;46439;51.164;13.572;2023-05-27T04:30:35;12.60;;;4.30;;
60610;SDS011;46439;51.164;13.572;2023-05-27T04:33:06;12.70;;;4.20;;
60610;SDS011;46439;51.164;13.572;2023-05-27T04:35:36;12.30;;;4.60;;
60610;SDS011;46439;51.164;13.572;2023-05-27T04:38:07;16.00;;;4.80;;
60610;SDS011;46439;51.164;13.572;2023-05-27T04:40:37;11.10;;;4.10;;
60610;SDS011;46439;51.164;13.572;2023-05-27T04:43:07;15.20;;;4.50;;
60610;SDS011;46439;51.164;13.572;2023-05-27T04:45:39;13.20;;;4.90;;
60610;SDS011;46439;51.164;13.572;2023-05-27T04:48:10;9.90;;;4.10;;
60610;SDS011;46439;51.164;13.572;2023-05-27T04:50:39;14.40;;;4.70;;
60610;SDS011;46439;51.164;13.572;2023-05-27T04:53:08;12.30;;;4.70;;
60610;SDS011;46439;51.164;13.572;2023-05-27T04:55:37;12.90;;;4.40;;
60610;SDS011;46439;51.164;13.572;2023-05-27T04:58:05;16.00;;;4.80;;
60610;SDS011;46439;51.164;13.572;2023-05-27T05:00:34;15.50;;;4.30;;
60610;SDS011;46439;51.164;13.572;2023-05-27T05:03:16;18.40;;;4.50;;
60610;SDS011;46439;51.164;13.572;2023-05-27T05:08:19;14.20;;;5.30;;
60610;SDS011;46439;51.164;13.572;2023-05-27T05:10:48;14.60;;;4.30;;
60610;SDS011;46439;51.164;13.572;2023-05-27T05:13:18;17.50;;;4.60;;
60610;SDS011;46439;51.164;13.572;2023-05-27T05:15:47;15.30;;;4.70;;
60610;SDS011;46439;51.164;13.572;2023-05-27T05:18:17;15.70;;;4.20;;
60610;SDS011;46439;51.164;13.572;2023-05-27T05:20:49;15.30;;;4.60;;
60610;SDS011;46439;51.164;13.572;2023-05-27T05:23:19;11.80;;;4.50;;
60610;SDS011;46439;51.164;13.572;2023-05-27T05:25:49;14.50;;;4.40;;
60610;SDS011;46439;51.164;13.572;2023-05-27T05:28:24;13.40;;;5.00;;
60610;SDS011;46439;51.164;13.572;2023-05-27T05:30:54;13.70;;;4.80;;
60610;SDS011;46439;51.164;13.572;2023-05-27T05:33:27;13.20;;;4.70;;
60610;SDS011;46439;51.164;13.572;2023-05-27T05:35:57;16.20;;;4.50;;
60610;SDS011;46439;51.164;13.572;2023-05-27T05:38:26;13.50;;;4.30;;
60610;SDS011;46439;51.164;13.572;2023-05-27T05:41:01;16.20;;;4.90;;
60610;SDS011;46439;51.164;13.572;2023-05-27T05:43:31;15.60;;;5.00;;
60610;SDS011;46439;51.164;13.572;2023-05-27T05:46:07;13.80;;;4.80;;
60610;SDS011;46439;51.164;13.572;2023-05-27T05:48:37;13.80;;;5.90;;
60610;SDS011;46439;51.164;13.572;2023-05-27T05:51:06;18.10;;;4.60;;
60610;SDS011;46439;51.164;13.572;2023-05-27T05:53:35;20.00;;;5.20;;
60610;SDS011;46439;51.164;13.572;2023-05-27T05:56:04;15.60;;;4.60;;
60610;SDS011;46439;51.164;13.572;2023-05-27T05:58:33;14.90;;;4.40;;
60610;SDS011;46439;51.164;13.572;2023-05-27T06:01:02;14.40;;;4.20;;
60610;SDS011;46439;51.164;13.572;2023-05-27T06:03:31;18.40;;;5.60;;
60610;SDS011;46439;51.164;13.572;2023-05-27T06:05:59;11.10;;;4.20;;
60610;SDS011;46439;51.164;13.572;2023-05-27T06:08:29;12.90;;;3.90;;
60610;SDS011;46439;51.164;13.572;2023-05-27T06:11:02;14.80;;;3.60;;
60610;SDS011;46439;51.164;13.572;2023-05-27T06:13:31;15.10;;;4.40;;
60610;SDS011;46439;51.164;13.572;2023-05-27T06:15:59;13.90;;;4.10;;
60610;SDS011;46439;51.164;13.572;2023-05-27T06:18:28;13.40;;;4.00;;
60610;SDS011;46439;51.164;13.572;2023-05-27T06:20:57;13.30;;;3.80;;
60610;SDS011;46439;51.164;13.572;2023-05-27T06:23:27;14.40;;;3.80;;
60610;SDS011;46439;51.164;13.572;2023-05-27T06:25:56;15.10;;;3.80;;
60610;SDS011;46439;51.164;13.572;2023-05-27T06:28:24;16.60;;;4.20;;
60610;SDS011;46439;51.164;13.572;2023-05-27T06:30:53;16.20;;;4.50;;
60610;SDS011;46439;51.164;13.572;2023-05-27T06:33:22;13.00;;;4.10;;
60610;SDS011;46439;51.164;13.572;2023-05-27T06:35:50;14.30;;;4.10;;
60610;SDS011;46439;51.164;13.572;2023-05-27T06:38:19;18.80;;;3.80;;
60610;SDS011;46439;51.164;13.572;2023-05-27T06:40:48;14.70;;;3.80;;
60610;SDS011;46439;51.164;13.572;2023-05-27T06:43:17;14.10;;;3.70;;
60610;SDS011;46439;51.164;13.572;2023-05-27T06:45:46;11.10;;;3.40;;
60610;SDS011;46439;51.164;13.572;2023-05-27T06:48:14;13.50;;;3.80;;
60610;SDS011;46439;51.164;13.572;2023-05-27T06:50:43;14.50;;;3.70;;
60610;SDS011;46439;51.164;13.572;2023-05-27T06:53:12;13.10;;;3.60;;
60610;SDS011;46439;51.164;13.572;2023-05-27T06:55:41;11.80;;;3.50;;
60610;SDS011;46439;51.164;13.572;2023-05-27T06:58:09;9.60;;;3.10;;
60610;SDS011;46439;51.164;13.572;2023-05-27T07:00:38;13.10;;;3.30;;
60610;SDS011;46439;51.164;13.572;2023-05-27T07:03:06;14.90;;;3.10;;
60610;SDS011;46439;51.164;13.572;2023-05-27T07:05:35;15.10;;;3.50;;
60610;SDS011;46439;51.164;13.572;2023-05-27T07:08:04;9.90;;;2.90;;
60610;SDS011;46439;51.164;13.572;2023-05-27T07:10:33;11.80;;;3.40;;
60610;SDS011;46439;51.164;13.572;2023-05-27T07:13:02;10.60;;;3.40;;
60610;SDS011;46439;51.164;13.572;2023-05-27T07:15:30;12.60;;;3.20;;
60610;SDS011;46439;51.164;13.572;2023-05-27T07:17:59;14.20;;;3.20;;
60610;SDS011;46439;51.164;13.572;2023-05-27T07:20:28;10.60;;;3.10;;
60610;SDS011;46439;51.164;13.572;2023-05-27T07:22:57;10.20;;;2.80;;
60610;SDS011;46439;51.164;13.572;2023-05-27T07:25:25;12.50;;;3.30;;
60610;SDS011;46439;51.164;13.572;2023-05-27T07:27:54;9.30;;;2.90;;
60610;SDS011;46439;51.164;13.572;2023-05-27T07:30:22;10.60;;;2.90;;
60610;SDS011;46439;51.164;13.572;2023-05-27T07:32:51;12.10;;;3.70;;
60610;SDS011;46439;51.164;13.572;2023-05-27T07:35:20;11.60;;;3.40;;
60610;SDS011;46439;51.164;13.572;2023-05-27T07:37:51;10.40;;;3.20;;
60610;SDS011;46439;51.164;13.572;2023-05-27T07:40:20;9.60;;;3.40;;
60610;SDS011;46439;51.164;13.572;2023-05-27T07:42:48;14.00;;;3.70;;
60610;SDS011;46439;51.164;13.572;2023-05-27T07:45:17;10.70;;;3.50;;
60610;SDS011;46439;51.164;13.572;2023-05-27T07:47:46;12.00;;;3.50;;
60610;SDS011;46439;51.164;13.572;2023-05-27T07:50:14;11.70;;;3.30;;
60610;SDS011;46439;51.164;13.572;2023-05-27T07:52:43;12.00;;;3.50;;
60610;SDS011;46439;51.164;13.572;2023-05-27T07:55:12;10.60;;;3.30;;
60610;SDS011;46439;51.164;13.572;2023-05-27T07:57:41;11.50;;;3.30;;
60610;SDS011;46439;51.164;13.572;2023-05-27T08:00:11;13.80;;;3.80;;
60610;SDS011;46439;51.164;13.572;2023-05-27T08:02:40;11.30;;;3.60;;
60610;SDS011;46439;51.164;13.572;2023-05-27T08:05:10;9.90;;;3.30;;
60610;SDS011;46439;51.164;13.572;2023-05-27T08:07:38;15.50;;;3.60;;
60610;SDS011;46439;51.164;13.572;2023-05-27T08:10:08;10.40;;;3.50;;
60610;SDS011;46439;51.164;13.572;2023-05-27T08:12:38;9.40;;;3.30;;
60610;SDS011;46439;51.164;13.572;2023-05-27T08:15:07;10.50;;;3.30;;
60610;SDS011;46439;51.164;13.572;2023-05-27T08:17:36;10.70;;;3.30;;
60610;SDS011;46439;51.164;13.572;2023-05-27T08:20:06;7.80;;;3.00;;
60610;SDS011;46439;51.164;13.572;2023-05-27T08:22:35;13.20;;;3.30;;
60610;SDS011;46439;51.164;13.572;2023-05-27T08:25:05;11.20;;;3.30;;
60610;SDS011;46439;51.164;13.572;2023-05-27T08:27:43;9.50;;;3.20;;
60610;SDS011;46439;51.164;13.572;2023-05-27T08:30:14;13.30;;;3.30;;
60610;SDS011;46439;51.164;13.572;2023-05-27T08:32:43;12.60;;;3.70;;
60610;SDS011;46439;51.164;13.572;2023-05-27T08:35:12;11.20;;;3.10;;
60610;SDS011;46439;51.164;13.572;2023-05-27T08:37:41;10.60;;;3.50;;
60610;SDS011;46439;51.164;13.572;2023-05-27T08:40:12;11.00;;;3.40;;
60610;SDS011;46439;51.164;13.572;2023-05-27T08:42:42;10.80;;;3.40;;
60610;SDS011;46439;51.164;13.572;2023-05-27T08:45:12;12.60;;;3.50;;
60610;SDS011;46439;51.164;13.572;2023-05-27T08:47:41;11.60;;;3.60;;
60610;SDS011;46439;51.164;13.572;2023-05-27T08:50:10;12.10;;;3.40;;
60610;SDS011;46439;51.164;13.572;2023-05-27T08:52:41;14.00;;;3.90;;
60610;SDS011;46439;51.164;13.572;2023-05-27T08:55:12;15.10;;;3.50;;
60610;SDS011;46439;51.164;13.572;2023-05-27T08:57:49;11.00;;;3.30;;
60610;SDS011;46439;51.164;13.572;2023-05-27T09:00:21;9.00;;;2.70;;
60610;SDS011;46439;51.164;13.572;2023-05-27T09:02:50;13.00;;;3.30;;
60610;SDS011;46439;51.164;13.572;2023-05-27T09:05:23;9.50;;;3.60;;
60610;SDS011;46439;51.164;13.572;2023-05-27T09:07:52;14.40;;;4.00;;
60610;SDS011;46439;51.164;13.572;2023-05-27T09:10:21;11.60;;;3.40;;
60610;SDS011;46439;51.164;13.572;2023-05-27T09:12:50;9.10;;;3.30;;
60610;SDS011;46439;51.164;13.572;2023-05-27T09:15:18;7.20;;;2.90;;
60610;SDS011;46439;51.164;13.572;2023-05-27T09:17:49;9.10;;;3.50;;
60610;SDS011;46439;51.164;13.572;2023-05-27T09:20:23;9.20;;;3.00;;
60610;SDS011;46439;51.164;13.572;2023-05-27T09:22:57;11.50;;;3.50;;
60610;SDS011;46439;51.164;13.572;2023-05-27T09:25:27;6.30;;;2.90;;
60610;SDS011;46439;51.164;13.572;2023-05-27T09:27:56;9.30;;;3.20;;
60610;SDS011;46439;51.164;13.572;2023-05-27T09:30:24;9.70;;;3.20;;
60610;SDS011;46439;51.164;13.572;2023-05-27T09:32:59;5.50;;;2.40;;
60610;SDS011;46439;51.164;13.572;2023-05-27T09:35:29;9.90;;;3.10;;
60610;SDS011;46439;51.164;13.572;2023-05-27T09:38:07;8.80;;;3.30;;
60610;SDS011;46439;51.164;13.572;2023-05-27T09:40:37;9.90;;;3.00;;
60610;SDS011;46439;51.164;13.572;2023-05-27T09:43:07;11.80;;;3.20;;
60610;SDS011;46439;51.164;13.572;2023-05-27T09:45:39;10.40;;;3.30;;
60610;SDS011;46439;51.164;13.572;2023-05-27T09:48:08;8.90;;;2.90;;
60610;SDS011;46439;51.164;13.572;2023-05-27T09:50:39;8.90;;;3.10;;
60610;SDS011;46439;51.164;13.572;2023-05-27T09:53:09;8.10;;;3.00;;
60610;SDS011;46439;51.164;13.572;2023-05-27T09:55:40;9.80;;;3.60;;
60610;SDS011;46439;51.164;13.572;2023-05-27T09:58:09;7.60;;;2.70;;
60610;SDS011;46439;51.164;13.572;2023-05-27T10:00:39;9.50;;;3.10;;
60610;SDS011;46439;51.164;13.572;2023-05-27T10:03:08;12.90;;;3.30;;
60610;SDS011;46439;51.164;13.572;2023-05-27T10:05:39;8.60;;;3.20;;
60610;SDS011;46439;51.164;13.572;2023-05-27T10:08:07;9.80;;;3.10;;
60610;SDS011;46439;51.164;13.572;2023-05-27T10:10:37;11.00;;;3.40;;
60610;SDS011;46439;51.164;13.572;2023-05-27T10:13:07;10.50;;;3.50;;
60610;SDS011;46439;51.164;13.572;2023-05-27T10:15:36;8.90;;;3.40;;
60610;SDS011;46439;51.164;13.572;2023-05-27T10:18:06;13.80;;;3.50;;
60610;SDS011;46439;51.164;13.572;2023-05-27T10:20:37;12.10;;;3.40;;
60610;SDS011;46439;51.164;13.572;2023-05-27T10:23:12;12.90;;;3.20;;
60610;SDS011;46439;51.164;13.572;2023-05-27T10:25:46;11.00;;;2.90;;
60610;SDS011;46439;51.164;13.572;2023-05-27T10:28:24;9.50;;;3.40;;
60610;SDS011;46439;51.164;13.572;2023-05-27T10:31:02;10.40;;;3.40;;
60610;SDS011;46439;51.164;13.572;2023-05-27T10:33:33;12.30;;;3.20;;
60610;SDS011;46439;51.164;13.572;2023-05-27T10:36:06;12.00;;;3.30;;
60610;SDS011;46439;51.164;13.572;2023-05-27T10:38:37;10.50;;;3.10;;
60610;SDS011;46439;51.164;13.572;2023-05-27T10:41:09;7.60;;;2.80;;
60610;SDS011;46439;51.164;13.572;2023-05-27T10:43:38;13.10;;;3.50;;
60610;SDS011;46439;51.164;13.572;2023-05-27T10:46:08;9.60;;;3.40;;
60610;SDS011;46439;51.164;13.572;2023-05-27T10:48:38;8.00;;;3.60;;
60610;SDS011;46439;51.164;13.572;2023-05-27T10:51:07;5.90;;;2.70;;
60610;SDS011;46439;51.164;13.572;2023-05-27T10:53:37;8.50;;;3.00;;
60610;SDS011;46439;51.164;13.572;2023-05-27T10:56:06;10.50;;;3.00;;
60610;SDS011;46439;51.164;13.572;2023-05-27T10:58:37;7.70;;;3.10;;
60610;SDS011;46439;51.164;13.572;2023-05-27T11:01:08;7.80;;;2.80;;
60610;SDS011;46439;51.164;13.572;2023-05-27T11:03:42;11.40;;;3.50;;
60610;SDS011;46439;51.164;13.572;2023-05-27T11:06:11;9.00;;;3.20;;
60610;SDS011;46439;51.164;13.572;2023-05-27T11:08:42;10.00;;;3.40;;
60610;SDS011;46439;51.164;13.572;2023-05-27T11:11:11;10.00;;;3.30;;
60610;SDS011;46439;51.164;13.572;2023-05-27T11:13:41;6.70;;;2.60;;
60610;SDS011;46439;51.164;13.572;2023-05-27T11:16:11;9.80;;;3.50;;
60610;SDS011;46439;51.164;13.572;2023-05-27T11:18:41;8.30;;;2.90;;
60610;SDS011;46439;51.164;13.572;2023-05-27T11:21:11;8.10;;;3.40;;
60610;SDS011;46439;51.164;13.572;2023-05-27T11:23:45;7.50;;;3.10;;
60610;SDS011;46439;51.164;13.572;2023-05-27T11:26:16;9.10;;;3.40;;
60610;SDS011;46439;51.164;13.572;2023-05-27T11:28:49;9.50;;;2.80;;
60610;SDS011;46439;51.164;13.572;2023-05-27T11:33:48;7.40;;;3.10;;
60610;SDS011;46439;51.164;13.572;2023-05-27T11:36:17;9.90;;;3.60;;
60610;SDS011;46439;51.164;13.572;2023-05-27T11:38:50;7.90;;;2.80;;
60610;SDS011;46439;51.164;13.572;2023-05-27T11:41:21;7.90;;;2.90;;
60610;SDS011;46439;51.164;13.572;2023-05-27T11:43:54;9.60;;;2.60;;
60610;SDS011;46439;51.164;13.572;2023-05-27T11:46:32;8.00;;;3.10;;
60610;SDS011;46439;51.164;13.572;2023-05-27T11:49:02;7.40;;;3.20;;
60610;SDS011;46439;51.164;13.572;2023-05-27T11:51:34;6.80;;;2.80;;
60610;SDS011;46439;51.164;13.572;2023-05-27T11:54:04;10.30;;;2.90;;
60610;SDS011;46439;51.164;13.572;2023-05-27T11:56:32;8.00;;;3.10;;
60610;SDS011;46439;51.164;13.572;2023-05-27T11:59:01;6.60;;;2.70;;
60610;SDS011;46439;51.164;13.572;2023-05-27T12:01:30;5.40;;;2.50;;
60610;SDS011;46439;51.164;13.572;2023-05-27T12:03:58;6.60;;;2.90;;
60610;SDS011;46439;51.164;13.572;2023-05-27T12:06:27;9.30;;;3.00;;
60610;SDS011;46439;51.164;13.572;2023-05-27T12:08:55;8.70;;;2.90;;
60610;SDS011;46439;51.164;13.572;2023-05-27T12:11:24;6.50;;;2.80;;
60610;SDS011;46439;51.164;13.572;2023-05-27T12:13:54;5.50;;;2.90;;
60610;SDS011;46439;51.164;13.572;2023-05-27T12:16:24;5.50;;;2.90;;
60610;SDS011;46439;51.164;13.572;2023-05-27T12:18:53;7.90;;;3.30;;
60610;SDS011;46439;51.164;13.572;2023-05-27T12:21:22;8.90;;;3.00;;
60610;SDS011;46439;51.164;13.572;2023-05-27T12:23:51;8.80;;;2.90;;
60610;SDS011;46439;51.164;13.572;2023-05-27T12:26:20;8.10;;;2.80;;
60610;SDS011;46439;51.164;13.572;2023-05-27T12:28:49;8.10;;;3.20;;
60610;SDS011;46439;51.164;13.572;2023-05-27T12:31:18;5.80;;;2.80;;
60610;SDS011;46439;51.164;13.572;2023-05-27T12:33:46;6.70;;;2.90;;
60610;SDS011;46439;51.164;13.572;2023-05-27T12:36:15;5.00;;;2.70;;
60610;SDS011;46439;51.164;13.572;2023-05-27T12:38:45;4.90;;;2.70;;
60610;SDS011;46439;51.164;13.572;2023-05-27T12:41:14;8.80;;;3.10;;
60610;SDS011;46439;51.164;13.572;2023-05-27T12:43:43;5.50;;;2.80;;
60610;SDS011;46439;51.164;13.572;2023-05-27T12:46:11;6.20;;;2.80;;
60610;SDS011;46439;51.164;13.572;2023-05-27T12:48:40;7.00;;;2.80;;
60610;SDS011;46439;51.164;13.572;2023-05-27T12:51:09;9.90;;;2.90;;
60610;SDS011;46439;51.164;13.572;2023-05-27T12:53:37;5.80;;;2.90;;
60610;SDS011;46439;51.164;13.572;2023-05-27T12:56:06;5.70;;;2.50;;
60610;SDS011;46439;51.164;13.572;2023-05-27T12:58:35;7.90;;;3.30;;
60610;SDS011;46439;51.164;13.572;2023-05-27T13:01:04;5.10;;;2.60;;
60610;SDS011;46439;51.164;13.572;2023-05-27T13:03:32;6.80;;;2.80;;
60610;SDS011;46439;51.164;13.572;2023-05-27T13:06:00;5.00;;;2.50;;
60610;SDS011;46439;51.164;13.572;2023-05-27T13:08:32;5.40;;;2.90;;
60610;SDS011;46439;51.164;13.572;2023-05-27T13:11:00;6.40;;;2.80;;
60610;SDS011;46439;51.164;13.572;2023-05-27T13:13:29;5.90;;;2.90;;
60610;SDS011;46439;51.164;13.572;2023-05-27T13:15:58;7.10;;;2.90;;
60610;SDS011;46439;51.164;13.572;2023-05-27T13:18:26;6.00;;;2.80;;
60610;SDS011;46439;51.164;13.572;2023-05-27T13:20:56;6.10;;;2.70;;
60610;SDS011;46439;51.164;13.572;2023-05-27T13:23:24;7.50;;;2.80;;
60610;SDS011;46439;51.164;13.572;2023-05-27T13:25:55;6.50;;;3.10;;
60610;SDS011;46439;51.164;13.572;2023-05-27T13:28:24;7.70;;;3.10;;
60610;SDS011;46439;51.164;13.572;2023-05-27T13:30:52;6.40;;;2.90;;
60610;SDS011;46439;51.164;13.572;2023-05-27T13:33:21;6.80;;;3.00;;
60610;SDS011;46439;51.164;13.572;2023-05-27T13:35:50;7.90;;;3.20;;
60610;SDS011;46439;51.164;13.572;2023-05-27T13:38:19;5.30;;;2.80;;
60610;SDS011;46439;51.164;13.572;2023-05-27T13:40:47;9.00;;;2.90;;
60610;SDS011;46439;51.164;13.572;2023-05-27T13:43:16;6.70;;;2.60;;
60610;SDS011;46439;51.164;13.572;2023-05-27T13:45:45;7.60;;;3.10;;
60610;SDS011;46439;51.164;13.572;2023-05-27T13:48:14;7.20;;;3.00;;
60610;SDS011;46439;51.164;13.572;2023-05-27T13:50:42;8.30;;;2.70;;
60610;SDS011;46439;51.164;13.572;2023-05-27T13:53:11;6.40;;;3.00;;
60610;SDS011;46439;51.164;13.572;2023-05-27T13:55:39;5.40;;;2.60;;
60610;SDS011;46439;51.164;13.572;2023-05-27T13:58:09;7.30;;;3.00;;
60610;SDS011;46439;51.164;13.572;2023-05-27T14:00:38;6.60;;;2.90;;
60610;SDS011;46439;51.164;13.572;2023-05-27T14:03:07;6.60;;;2.90;;
60610;SDS011;46439;51.164;13.572;2023-05-27T14:05:36;6.50;;;2.80;;
60610;SDS011;46439;51.164;13.572;2023-05-27T14:08:04;5.00;;;2.60;;
60610;SDS011;46439;51.164;13.572;2023-05-27T14:10:34;4.90;;;2.70;;
60610;SDS011;46439;51.164;13.572;2023-05-27T14:13:03;6.90;;;3.00;;
60610;SDS011;46439;51.164;13.572;2023-05-27T14:15:31;4.50;;;2.40;;
60610;SDS011;46439;51.164;13.572;2023-05-27T14:18:00;6.20;;;3.00;;
60610;SDS011;46439;51.164;13.572;2023-05-27T14:20:33;5.70;;;2.50;;
60610;SDS011;46439;51.164;13.572;2023-05-27T14:23:02;6.60;;;2.80;;
60610;SDS011;46439;51.164;13.572;2023-05-27T14:25:31;5.90;;;2.30;;
60610;SDS011;46439;51.164;13.572;2023-05-27T14:28:00;5.80;;;3.10;;
60610;SDS011;46439;51.164;13.572;2023-05-27T14:30:30;4.80;;;3.00;;
60610;SDS011;46439;51.164;13.572;2023-05-27T14:33:03;6.50;;;3.00;;
60610;SDS011;46439;51.164;13.572;2023-05-27T14:35:33;6.40;;;2.70;;
60610;SDS011;46439;51.164;13.572;2023-05-27T14:38:03;7.30;;;2.70;;
60610;SDS011;46439;51.164;13.572;2023-05-27T14:40:32;5.80;;;2.60;;
60610;SDS011;46439;51.164;13.572;2023-05-27T14:43:02;6.50;;;2.70;;
60610;SDS011;46439;51.164;13.572;2023-05-27T14:45:31;6.80;;;2.90;;